createdAt,value
2022-09-07T00:01:01.030Z,93924.67
2022-09-07T00:02:04.332Z,93928.75
2022-09-07T00:03:08.981Z,93921.98
2022-09-07T00:04:12.139Z,93917.14
2022-09-07T00:05:15.318Z,93915.33
2022-09-07T00:06:19.800Z,93917.61
2022-09-07T00:07:24.178Z,93917.02
2022-09-07T00:08:30.182Z,93917.50
2022-09-07T00:09:33.214Z,93918.55
2022-09-07T00:10:36.577Z,93920.20
2022-09-07T00:11:42.714Z,93921.04
2022-09-07T00:12:45.801Z,93923.22
2022-09-07T00:13:49.922Z,93921.29
2022-09-07T00:14:53.109Z,93922.18
2022-09-07T00:15:57.561Z,93922.76
2022-09-07T00:17:00.588Z,93914.05
2022-09-07T00:18:03.853Z,93916.27
2022-09-07T00:19:07.839Z,93917.75
2022-09-07T00:20:12.207Z,93912.77
2022-09-07T00:21:17.270Z,93914.19
2022-09-07T00:22:20.337Z,93914.05
2022-09-07T00:23:25.851Z,93913.58
2022-09-07T00:24:29.045Z,93911.67
2022-09-07T00:25:32.496Z,93913.62
2022-09-07T00:26:36.864Z,93916.21
2022-09-07T00:27:40.002Z,93915.45
2022-09-07T00:28:46.504Z,93913.24
2022-09-07T00:29:49.654Z,93912.52
2022-09-07T00:30:52.801Z,93911.30
2022-09-07T00:31:55.786Z,93910.41
2022-09-07T00:32:59.015Z,93902.23
2022-09-07T00:34:02.793Z,93909.51
2022-09-07T00:35:06.154Z,93908.31
2022-09-07T00:36:09.402Z,93911.44
2022-09-07T00:37:15.472Z,93910.90
2022-09-07T00:38:18.456Z,93911.33
2022-09-07T00:39:24.896Z,93896.36
2022-09-07T00:40:28.083Z,93909.25
2022-09-07T00:41:31.205Z,93910.09
2022-09-07T00:42:34.643Z,93907.25
2022-09-07T00:43:39.215Z,93904.09
2022-09-07T00:44:42.305Z,93904.41
2022-09-07T00:45:45.801Z,93906.84
2022-09-07T00:46:48.930Z,93900.69
2022-09-07T00:47:55.976Z,93906.13
2022-09-07T00:49:08.675Z,93902.45
2022-09-07T00:50:30.037Z,93903.95
2022-09-07T00:51:35.040Z,93901.88
2022-09-07T00:52:39.809Z,93902.56
2022-09-07T00:53:56.275Z,93900.09
2022-09-07T00:55:03.828Z,93904.27
2022-09-07T00:56:08.198Z,93905.27
2022-09-07T00:57:12.747Z,93905.85
2022-09-07T00:58:16.505Z,93897.89
2022-09-07T00:59:22.377Z,93903.90
2022-09-07T01:00:28.394Z,93907.23
2022-09-07T01:01:34.477Z,93906.50
2022-09-07T01:02:38.645Z,93904.65
2022-09-07T01:03:44.342Z,93905.48
2022-09-07T01:04:49.844Z,93903.23
2022-09-07T01:06:04.176Z,93901.27
2022-09-07T01:07:07.169Z,93898.04
2022-09-07T01:08:13.406Z,93900.67
2022-09-07T01:09:18.697Z,93897.30
2022-09-07T01:10:24.861Z,93897.98
2022-09-07T01:11:28.210Z,93899.20
2022-09-07T01:12:31.713Z,93898.66
2022-09-07T01:13:35.140Z,93901.51
2022-09-07T01:14:41.459Z,93900.98
2022-09-07T01:16:08.268Z,93901.41
2022-09-07T01:17:32.211Z,93901.88
2022-09-07T01:18:41.741Z,93898.78
2022-09-07T01:19:53.584Z,93897.82
2022-09-07T01:21:15.555Z,93898.23
2022-09-07T01:22:39.354Z,93891.80
2022-09-07T01:23:58.012Z,93892.69
2022-09-07T01:25:04.218Z,93889.90
2022-09-07T01:26:07.174Z,93890.31
2022-09-07T01:27:27.151Z,93889.25
2022-09-07T01:28:34.147Z,93887.52
2022-09-07T01:29:59.402Z,93888.36
2022-09-07T01:31:02.489Z,93888.30
2022-09-07T01:32:28.724Z,93887.83
2022-09-07T01:33:57.865Z,93884.83
2022-09-07T01:35:03.612Z,93881.08
2022-09-07T01:36:20.344Z,93882.66
2022-09-07T01:37:38.188Z,93875.89
2022-09-07T01:38:49.537Z,93874.84
2022-09-07T01:40:08.228Z,93874.98
2022-09-07T01:41:17.029Z,93875.63
2022-09-07T01:42:23.884Z,93873.69
2022-09-07T01:43:27.292Z,93873.30
2022-09-07T01:44:34.609Z,93873.21
2022-09-07T01:45:40.904Z,93874.73
2022-09-07T01:46:54.225Z,93872.15
2022-09-07T01:47:59.046Z,93872.89
2022-09-07T01:49:10.596Z,93873.00
2022-09-07T01:50:34.006Z,93872.62
2022-09-07T01:51:39.349Z,93872.31
2022-09-07T01:52:47.666Z,93861.52
2022-09-07T01:53:54.026Z,93870.26
2022-09-07T01:55:10.369Z,93873.63
2022-09-07T01:56:16.009Z,93871.73
2022-09-07T01:57:23.139Z,93873.95
2022-09-07T01:58:27.191Z,93875.74
2022-09-07T01:59:33.041Z,93873.41
2022-09-07T02:00:40.182Z,93868.80
2022-09-07T02:01:53.168Z,93873.30
2022-09-07T02:03:00.351Z,93873.66
2022-09-07T02:04:08.191Z,93873.89
2022-09-07T02:05:14.114Z,93871.02
2022-09-07T02:06:17.219Z,93868.48
2022-09-07T02:07:31.733Z,93871.60
2022-09-07T02:08:36.291Z,93871.00
2022-09-07T02:09:42.169Z,93866.15
2022-09-07T02:11:02.251Z,93869.67
2022-09-07T02:12:09.774Z,93864.98
2022-09-07T02:13:22.336Z,93870.41
2022-09-07T02:14:29.368Z,93870.89
2022-09-07T02:15:53.889Z,93866.55
2022-09-07T02:17:03.419Z,93867.95
2022-09-07T02:18:08.939Z,93865.57
2022-09-07T02:19:16.955Z,93864.77
2022-09-07T02:20:22.266Z,93862.41
2022-09-07T02:21:34.760Z,93866.14
2022-09-07T02:22:40.183Z,93867.20
2022-09-07T02:23:55.276Z,93869.15
2022-09-07T02:25:02.702Z,93867.11
2022-09-07T02:26:10.318Z,93866.63
2022-09-07T02:27:21.931Z,93865.98
2022-09-07T02:28:30.934Z,93866.39
2022-09-07T02:29:34.070Z,93865.28
2022-09-07T02:30:37.426Z,93867.40
2022-09-07T02:31:40.308Z,93866.13
2022-09-07T02:32:43.307Z,93864.39
2022-09-07T02:33:46.408Z,93860.23
2022-09-07T02:34:51.701Z,93860.16
2022-09-07T02:35:54.824Z,93857.48
2022-09-07T02:36:58.445Z,93858.27
2022-09-07T02:38:03.538Z,93851.31
2022-09-07T02:39:06.455Z,93854.04
2022-09-07T02:40:10.177Z,93854.56
2022-09-07T02:41:47.265Z,93850.19
2022-09-07T02:42:50.329Z,93851.30
2022-09-07T02:43:56.887Z,93849.02
2022-09-07T02:45:00.143Z,93848.86
2022-09-07T02:46:14.788Z,93848.38
2022-09-07T02:47:23.663Z,93847.70
2022-09-07T02:48:46.890Z,93843.38
2022-09-07T02:49:55.539Z,93842.05
2022-09-07T02:51:10.730Z,93840.21
2022-09-07T02:52:16.938Z,93837.77
2022-09-07T02:53:19.982Z,93838.20
2022-09-07T02:54:41.658Z,93839.63
2022-09-07T02:55:47.340Z,93842.21
2022-09-07T02:56:56.064Z,93838.73
2022-09-07T02:58:01.758Z,93837.95
2022-09-07T02:59:21.134Z,93838.70
2022-09-07T03:00:28.585Z,93840.02
2022-09-07T03:01:34.458Z,93834.73
2022-09-07T03:02:52.712Z,93837.94
2022-09-07T03:04:01.339Z,93840.05
2022-09-07T03:05:16.679Z,93845.26
2022-09-07T03:06:23.976Z,93843.95
2022-09-07T03:07:34.547Z,93846.67
2022-09-07T03:08:41.464Z,93844.28
2022-09-07T03:09:51.461Z,93843.39
2022-09-07T03:10:54.524Z,93838.53
2022-09-07T03:11:58.567Z,93838.75
2022-09-07T03:13:01.474Z,93836.73
2022-09-07T03:14:13.475Z,93839.74
2022-09-07T03:15:19.184Z,93840.69
2022-09-07T03:16:22.126Z,93841.59
2022-09-07T03:17:25.449Z,93839.98
2022-09-07T03:18:28.744Z,93846.48
2022-09-07T03:19:32.005Z,93844.16
2022-09-07T03:20:37.486Z,93850.48
2022-09-07T03:21:40.402Z,93853.08
2022-09-07T03:22:43.919Z,93852.98
2022-09-07T03:23:51.179Z,93854.29
2022-09-07T03:24:54.677Z,93850.76
2022-09-07T03:25:57.645Z,93852.98
2022-09-07T03:27:00.833Z,93854.71
2022-09-07T03:28:07.185Z,93853.04
2022-09-07T03:29:10.219Z,93855.09
2022-09-07T03:30:13.723Z,93853.83
2022-09-07T03:31:16.729Z,93852.61
2022-09-07T03:32:19.681Z,93853.38
2022-09-07T03:33:22.876Z,93852.24
2022-09-07T03:34:32.365Z,93851.91
2022-09-07T03:35:35.798Z,93851.73
2022-09-07T03:36:39.195Z,93852.20
2022-09-07T03:37:42.358Z,93853.73
2022-09-07T03:38:45.376Z,93852.04
2022-09-07T03:39:50.404Z,93857.04
2022-09-07T03:41:03.844Z,93858.58
2022-09-07T03:42:07.145Z,93858.98
2022-09-07T03:43:10.150Z,93858.89
2022-09-07T03:44:13.149Z,93861.20
2022-09-07T03:45:16.415Z,93861.10
2022-09-07T03:46:19.886Z,93866.02
2022-09-07T03:47:22.794Z,93865.97
2022-09-07T03:48:26.656Z,93866.22
2022-09-07T03:49:29.612Z,93867.06
2022-09-07T03:50:32.564Z,93864.69
2022-09-07T03:51:35.968Z,93864.95
2022-09-07T03:52:41.592Z,93867.10
2022-09-07T03:53:45.164Z,93866.80
2022-09-07T03:54:48.138Z,93865.89
2022-09-07T03:55:58.089Z,93871.22
2022-09-07T03:57:01.056Z,93869.72
2022-09-07T03:58:04.119Z,93875.59
2022-09-07T03:59:06.998Z,93878.57
2022-09-07T04:00:10.404Z,93882.20
2022-09-07T04:01:16.198Z,93883.72
2022-09-07T04:02:19.321Z,93883.98
2022-09-07T04:03:22.674Z,93878.19
2022-09-07T04:04:25.608Z,93881.98
2022-09-07T04:05:28.544Z,93871.36
2022-09-07T04:06:32.235Z,93883.45
2022-09-07T04:07:35.220Z,93884.50
2022-09-07T04:08:39.167Z,93885.94
2022-09-07T04:09:42.279Z,93886.32
2022-09-07T04:10:45.202Z,93883.78
2022-09-07T04:11:48.188Z,93889.02
2022-09-07T04:12:54.256Z,93877.63
2022-09-07T04:13:57.228Z,93882.09
2022-09-07T04:15:00.325Z,93884.64
2022-09-07T04:16:18.152Z,93887.70
2022-09-07T04:17:21.226Z,93886.60
2022-09-07T04:18:25.187Z,93887.72
2022-09-07T04:19:29.230Z,93888.88
2022-09-07T04:20:32.145Z,93889.84
2022-09-07T04:21:37.815Z,93889.94
2022-09-07T04:22:40.829Z,93892.55
2022-09-07T04:23:44.344Z,93889.91
2022-09-07T04:24:47.258Z,93887.61
2022-09-07T04:25:51.074Z,93889.28
2022-09-07T04:26:56.960Z,93892.04
2022-09-07T04:28:00.075Z,93888.08
2022-09-07T04:29:04.437Z,93889.46
2022-09-07T04:30:07.726Z,93890.26
2022-09-07T04:31:10.974Z,93889.00
2022-09-07T04:32:15.947Z,93893.21
2022-09-07T04:33:19.128Z,93891.80
2022-09-07T04:34:22.224Z,93888.67
2022-09-07T04:35:25.148Z,93892.33
2022-09-07T04:36:28.865Z,93892.89
2022-09-07T04:37:34.471Z,93893.11
2022-09-07T04:38:37.655Z,93892.52
2022-09-07T04:39:40.626Z,93892.73
2022-09-07T04:40:44.095Z,93892.17
2022-09-07T04:41:46.992Z,93892.40
2022-09-07T04:42:50.021Z,93894.46
2022-09-07T04:44:00.966Z,93896.30
2022-09-07T04:45:04.968Z,93892.97
2022-09-07T04:46:11.384Z,93894.60
2022-09-07T04:47:14.326Z,93892.16
2022-09-07T04:48:24.525Z,93892.89
2022-09-07T04:49:27.504Z,93891.22
2022-09-07T04:50:30.456Z,93888.52
2022-09-07T04:51:33.379Z,93888.36
2022-09-07T04:52:36.320Z,93888.42
2022-09-07T04:53:39.212Z,93887.99
2022-09-07T04:54:42.762Z,93888.64
2022-09-07T04:55:46.009Z,93892.59
2022-09-07T04:56:48.920Z,93891.68
2022-09-07T04:57:51.925Z,93893.59
2022-09-07T04:58:56.835Z,93892.69
2022-09-07T05:00:00.411Z,93896.70
2022-09-07T05:01:05.163Z,93896.95
2022-09-07T05:02:08.231Z,93896.06
2022-09-07T05:03:11.264Z,93899.88
2022-09-07T05:04:14.259Z,93900.98
2022-09-07T05:05:17.200Z,93900.00
2022-09-07T05:06:20.873Z,93903.21
2022-09-07T05:07:24.081Z,93900.66
2022-09-07T05:08:27.302Z,93907.88
2022-09-07T05:09:30.456Z,93906.41
2022-09-07T05:10:33.689Z,93905.33
2022-09-07T05:11:36.587Z,93901.06
2022-09-07T05:12:39.600Z,93898.85
2022-09-07T05:13:42.585Z,93901.27
2022-09-07T05:14:45.760Z,93902.02
2022-09-07T05:15:48.601Z,93903.40
2022-09-07T05:16:51.621Z,93904.14
2022-09-07T05:17:54.735Z,93903.90
2022-09-07T05:18:58.874Z,93904.81
2022-09-07T05:20:02.070Z,93901.13
2022-09-07T05:21:09.663Z,93900.83
2022-09-07T05:22:15.629Z,93902.20
2022-09-07T05:23:19.140Z,93901.69
2022-09-07T05:24:22.334Z,93899.70
2022-09-07T05:25:31.766Z,93903.20
2022-09-07T05:26:35.729Z,93897.35
2022-09-07T05:27:39.067Z,93899.89
2022-09-07T05:28:42.236Z,93901.27
2022-09-07T05:32:17.320Z,93904.35
2022-09-07T05:33:20.305Z,93903.40
2022-09-07T05:34:31.630Z,93903.52
2022-09-07T05:35:35.107Z,93896.39
2022-09-07T05:36:40.616Z,93899.47
2022-09-07T05:37:43.598Z,93899.63
2022-09-07T05:38:47.108Z,93899.73
2022-09-07T05:39:52.086Z,93899.11
2022-09-07T05:40:55.021Z,93898.07
2022-09-07T05:42:00.701Z,93903.50
2022-09-07T05:43:03.717Z,93903.52
2022-09-07T05:45:30.225Z,93906.74
2022-09-07T05:46:33.882Z,93909.92
2022-09-07T05:47:38.264Z,93906.11
2022-09-07T05:48:41.749Z,93908.34
2022-09-07T05:49:44.742Z,93912.29
2022-09-07T05:50:51.819Z,93911.57
2022-09-07T05:51:54.774Z,93913.14
2022-09-07T05:53:00.953Z,93909.71
2022-09-07T05:54:07.125Z,93915.73
2022-09-07T05:55:28.968Z,93916.79
2022-09-07T05:56:36.272Z,93914.62
2022-09-07T05:57:39.374Z,93917.05
2022-09-07T05:58:42.296Z,93914.98
2022-09-07T05:59:45.181Z,93915.31
2022-09-07T06:00:48.099Z,93917.98
2022-09-07T06:01:51.131Z,93918.27
2022-09-07T06:02:54.342Z,93919.79
2022-09-07T06:03:57.439Z,93915.92
2022-09-07T06:05:00.342Z,93913.70
2022-09-07T06:06:04.624Z,93916.50
2022-09-07T06:07:21.581Z,93912.05
2022-09-07T06:08:28.588Z,93917.68
2022-09-07T06:09:31.650Z,93918.70
2022-09-07T06:10:45.293Z,93916.75
2022-09-07T06:11:48.569Z,93920.39
2022-09-07T06:12:51.570Z,93916.10
2022-09-07T06:13:54.546Z,93918.84
2022-09-07T06:14:57.491Z,93915.81
2022-09-07T06:16:05.102Z,93914.89
2022-09-07T06:17:10.568Z,93918.75
2022-09-07T06:18:13.692Z,93917.73
2022-09-07T06:19:16.691Z,93917.29
2022-09-07T06:20:20.042Z,93917.91
2022-09-07T06:21:24.165Z,93918.86
2022-09-07T06:22:30.753Z,93921.73
2022-09-07T06:23:35.044Z,93925.95
2022-09-07T06:24:39.669Z,93921.95
2022-09-07T06:25:49.215Z,93924.47
2022-09-07T06:26:52.093Z,93924.81
2022-09-07T06:27:55.069Z,93929.66
2022-09-07T06:28:58.607Z,93928.10
2022-09-07T06:30:01.604Z,93929.38
2022-09-07T06:31:07.699Z,93930.14
2022-09-07T06:33:35.726Z,93921.48
2022-09-07T06:34:38.819Z,93920.59
2022-09-07T06:35:41.969Z,93921.93
2022-09-07T06:36:44.965Z,93920.13
2022-09-07T06:37:47.893Z,93921.66
2022-09-07T06:38:51.540Z,93921.56
2022-09-07T06:39:55.649Z,93915.53
2022-09-07T06:42:25.979Z,93919.60
2022-09-07T06:43:29.068Z,93913.88
2022-09-07T06:44:32.115Z,93914.00
2022-09-07T06:45:35.052Z,93913.60
2022-09-07T06:48:01.260Z,93909.87
2022-09-07T06:49:04.688Z,93912.33
2022-09-07T06:50:07.947Z,93912.55
2022-09-07T06:51:15.651Z,93910.76
2022-09-07T06:52:20.479Z,93915.44
2022-09-07T06:55:57.530Z,93906.57
2022-09-07T06:57:00.606Z,93908.79
2022-09-07T06:58:03.657Z,93907.46
2022-09-07T06:59:07.040Z,93909.34
2022-09-07T07:00:10.509Z,93915.08
2022-09-07T07:01:15.153Z,93913.25
2022-09-07T07:02:19.800Z,93912.23
2022-09-07T07:03:23.175Z,93908.43
2022-09-07T07:04:26.481Z,93907.52
2022-09-07T07:05:29.524Z,93906.31
2022-09-07T07:06:37.462Z,93909.27
2022-09-07T07:07:40.450Z,93908.02
2022-09-07T07:08:43.654Z,93906.25
2022-09-07T07:09:46.795Z,93911.36
2022-09-07T07:10:50.594Z,93912.21
2022-09-07T07:11:53.600Z,93912.42
2022-09-07T07:12:59.362Z,93911.98
2022-09-07T07:14:02.313Z,93917.41
2022-09-07T07:15:05.790Z,93915.30
2022-09-07T07:16:10.202Z,93916.84
2022-09-07T07:17:13.520Z,93917.11
2022-09-07T07:18:21.247Z,93918.73
2022-09-07T07:19:24.415Z,93917.70
2022-09-07T07:20:27.418Z,93919.06
2022-09-07T07:21:42.884Z,93919.55
2022-09-07T07:22:53.279Z,93921.05
2022-09-07T07:23:56.244Z,93918.98
2022-09-07T07:24:59.593Z,93920.77
2022-09-07T07:26:03.970Z,93919.88
2022-09-07T07:27:07.377Z,93917.21
2022-09-07T07:29:33.425Z,93916.70
2022-09-07T07:30:36.378Z,93918.80
2022-09-07T07:31:39.499Z,93918.22
2022-09-07T07:32:42.994Z,93916.61
2022-09-07T07:33:48.224Z,93919.05
2022-09-07T07:34:51.195Z,93920.77
2022-09-07T07:35:54.150Z,93919.81
2022-09-07T07:36:57.029Z,93920.92
2022-09-07T07:42:16.160Z,93921.70
2022-09-07T07:43:18.936Z,93925.15
2022-09-07T07:44:21.829Z,93925.48
2022-09-07T07:46:51.115Z,93928.98
2022-09-07T07:47:54.280Z,93929.19
2022-09-07T07:48:57.380Z,93932.33
2022-09-07T07:51:25.649Z,93937.63
2022-09-07T07:53:41.164Z,93941.38
2022-09-07T07:53:58.991Z,93940.29
2022-09-07T07:55:42.512Z,93940.46
2022-09-07T07:56:25.380Z,93940.80
2022-09-07T07:57:28.960Z,93938.77
2022-09-07T07:58:32.599Z,93945.10
2022-09-07T07:59:35.653Z,93939.98
2022-09-07T08:00:53.662Z,93939.84
2022-09-07T08:01:57.566Z,93942.75
2022-09-07T08:03:01.595Z,93945.06
2022-09-07T08:04:04.621Z,93944.32
2022-09-07T08:05:08.340Z,93948.40
2022-09-07T08:06:13.510Z,93949.06
2022-09-07T08:07:16.469Z,93950.94
2022-09-07T08:08:19.890Z,93952.11
2022-09-07T08:09:22.896Z,93949.23
2022-09-07T08:10:30.354Z,93947.62
2022-09-07T08:11:34.465Z,93946.88
2022-09-07T08:12:37.354Z,93942.20
2022-09-07T08:13:42.139Z,93944.58
2022-09-07T08:14:46.714Z,93944.86
2022-09-07T08:15:52.846Z,93943.65
2022-09-07T08:16:57.167Z,93948.40
2022-09-07T08:18:00.065Z,93940.41
2022-09-07T08:19:02.928Z,93945.62
2022-09-07T08:20:06.194Z,93945.67
2022-09-07T08:21:13.239Z,93943.89
2022-09-07T08:22:16.317Z,93943.69
2022-09-07T08:23:20.650Z,93942.79
2022-09-07T08:24:25.060Z,93940.92
2022-09-07T08:25:28.637Z,93939.33
2022-09-07T08:26:31.515Z,93938.27
2022-09-07T08:27:35.249Z,93934.00
2022-09-07T08:28:39.336Z,93927.63
2022-09-07T08:29:42.249Z,93927.00
2022-09-07T08:30:45.232Z,93929.75
2022-09-07T08:31:48.555Z,93925.08
2022-09-07T08:32:52.013Z,93928.48
2022-09-07T08:33:54.999Z,93924.95
2022-09-07T08:34:59.181Z,93930.72
2022-09-07T08:36:05.644Z,93928.52
2022-09-07T08:37:08.652Z,93930.70
2022-09-07T08:38:11.646Z,93927.10
2022-09-07T08:39:14.450Z,93927.88
2022-09-07T08:40:18.174Z,93930.31
2022-09-07T08:41:21.429Z,93931.05
2022-09-07T08:42:27.244Z,93930.31
2022-09-07T08:43:59.830Z,93933.13
2022-09-07T08:45:06.015Z,93936.80
2022-09-07T08:46:19.585Z,93936.59
2022-09-07T08:47:40.936Z,93935.33
2022-09-07T08:48:44.284Z,93935.81
2022-09-07T08:49:47.311Z,93935.91
2022-09-07T08:50:56.356Z,93933.59
2022-09-07T08:52:04.449Z,93939.63
2022-09-07T08:53:13.604Z,93939.99
2022-09-07T08:54:17.467Z,93938.02
2022-09-07T08:55:23.285Z,93940.83
2022-09-07T08:56:36.094Z,93942.55
2022-09-07T08:57:41.390Z,93943.20
2022-09-07T08:58:53.848Z,93941.13
2022-09-07T08:59:58.199Z,93943.91
2022-09-07T09:02:27.662Z,93943.55
2022-09-07T09:03:34.900Z,93946.16
2022-09-07T09:06:47.729Z,93943.33
2022-09-07T09:08:08.275Z,93944.86
2022-09-07T09:09:14.182Z,93944.52
2022-09-07T09:10:19.885Z,93950.19
2022-09-07T09:11:25.274Z,93947.49
2022-09-07T09:12:40.571Z,93945.83
2022-09-07T09:13:55.555Z,93951.94
2022-09-07T09:15:10.011Z,93954.45
2022-09-07T09:16:16.107Z,93954.67
2022-09-07T09:17:19.035Z,93956.92
2022-09-07T09:18:34.676Z,93954.05
2022-09-07T09:19:49.823Z,93956.77
2022-09-07T09:20:54.339Z,93953.73
2022-09-07T09:22:08.174Z,93955.69
2022-09-07T09:23:15.004Z,93957.29
2022-09-07T09:24:19.796Z,93951.35
2022-09-07T09:25:27.000Z,93952.16
2022-09-07T09:26:31.479Z,93948.09
2022-09-07T09:27:34.359Z,93947.66
2022-09-07T09:28:38.721Z,93946.64
2022-09-07T09:29:42.125Z,93946.98
2022-09-07T09:30:45.459Z,93947.48
2022-09-07T09:31:48.458Z,93944.10
2022-09-07T09:32:53.040Z,93942.56
2022-09-07T09:34:05.429Z,93943.48
2022-09-07T09:35:14.554Z,93943.38
2022-09-07T09:36:25.800Z,93943.92
2022-09-07T09:37:35.878Z,93938.56
2022-09-07T09:38:47.107Z,93943.12
2022-09-07T09:40:00.588Z,93939.38
2022-09-07T09:41:05.914Z,93940.04
2022-09-07T09:42:11.746Z,93937.87
2022-09-07T09:43:21.571Z,93935.04
2022-09-07T09:44:26.594Z,93931.94
2022-09-07T09:46:11.731Z,93935.40
2022-09-07T09:48:35.415Z,93932.13
2022-09-07T09:49:40.099Z,93932.04
2022-09-07T09:52:32.039Z,93935.89
2022-09-07T09:53:39.140Z,93934.39
2022-09-07T09:54:43.612Z,93932.70
2022-09-07T09:55:50.993Z,93928.13
2022-09-07T09:56:54.356Z,93931.42
2022-09-07T10:04:56.615Z,93924.58
2022-09-07T10:06:02.583Z,93923.23
2022-09-07T10:07:11.636Z,93919.00
2022-09-07T10:08:19.737Z,93919.69
2022-09-07T10:09:25.157Z,93919.44
2022-09-07T10:10:28.868Z,93915.59
2022-09-07T10:12:18.275Z,93912.06
2022-09-07T10:13:20.089Z,93907.89
2022-09-07T10:14:33.855Z,93903.55
2022-09-07T10:15:40.421Z,93906.70
2022-09-07T10:16:45.046Z,93904.91
2022-09-07T10:17:49.936Z,93905.72
2022-09-07T10:18:59.057Z,93903.62
2022-09-07T10:20:22.012Z,93905.45
2022-09-07T10:21:28.666Z,93903.05
2022-09-07T10:22:32.270Z,93908.77
2022-09-07T10:23:35.102Z,93906.17
2022-09-07T10:24:39.832Z,93906.19
2022-09-07T10:25:45.944Z,93901.02
2022-09-07T10:26:48.908Z,93902.89
2022-09-07T10:28:16.715Z,93903.24
2022-09-07T10:29:25.754Z,93901.38
2022-09-07T10:30:29.885Z,93904.67
2022-09-07T10:31:34.284Z,93903.30
2022-09-07T10:32:44.289Z,93902.66
2022-09-07T10:35:30.834Z,93901.94
2022-09-07T10:36:42.805Z,93897.16
2022-09-07T10:38:04.267Z,93899.01
2022-09-07T10:39:11.503Z,93900.58
2022-09-07T10:40:22.056Z,93899.36
2022-09-07T10:41:32.635Z,93904.63
2022-09-07T10:42:37.488Z,93902.96
2022-09-07T10:43:44.862Z,93906.61
2022-09-07T10:44:50.853Z,93903.92
2022-09-07T10:45:56.736Z,93901.73
2022-09-07T10:47:07.457Z,93898.61
2022-09-07T10:48:20.894Z,93895.04
2022-09-07T10:49:30.013Z,93891.39
2022-09-07T10:50:39.804Z,93895.09
2022-09-07T10:52:12.024Z,93896.83
2022-09-07T10:53:41.400Z,93898.29
2022-09-07T10:54:50.886Z,93891.50
2022-09-07T10:55:53.719Z,93898.72
2022-09-07T10:57:05.400Z,93899.39
2022-09-07T11:00:08.271Z,93898.64
2022-09-07T11:01:17.730Z,93898.77
2022-09-07T11:02:30.381Z,93897.55
2022-09-07T11:03:33.323Z,93896.73
2022-09-07T11:04:56.243Z,93899.23
2022-09-07T11:06:14.676Z,93897.66
2022-09-07T11:07:17.496Z,93895.47
2022-09-07T11:10:17.535Z,93894.67
2022-09-07T11:12:58.197Z,93889.14
2022-09-07T11:14:22.347Z,93893.88
2022-09-07T11:15:27.635Z,93893.18
2022-09-07T11:18:02.347Z,93891.66
2022-09-07T11:20:34.006Z,93892.14
2022-09-07T11:23:07.814Z,93882.89
2022-09-07T11:24:14.075Z,93889.17
2022-09-07T11:25:39.481Z,93882.16
2022-09-07T11:26:50.940Z,93883.92
2022-09-07T11:27:59.624Z,93886.02
2022-09-07T11:30:40.317Z,93880.63
2022-09-07T11:31:47.823Z,93879.86
2022-09-07T11:33:03.372Z,93881.20
2022-09-07T11:34:24.103Z,93881.99
2022-09-07T11:35:45.404Z,93885.79
2022-09-07T11:36:55.326Z,93881.07
2022-09-07T11:38:00.434Z,93879.91
2022-09-07T11:39:22.350Z,93875.77
2022-09-07T11:40:27.882Z,93874.73
2022-09-07T11:41:34.242Z,93874.51
2022-09-07T11:42:43.561Z,93876.14
2022-09-07T11:43:48.831Z,93872.54
2022-09-07T11:44:56.299Z,93872.36
2022-09-07T11:46:11.201Z,93872.20
2022-09-07T11:47:20.903Z,93870.00
2022-09-07T11:48:31.090Z,93869.31
2022-09-07T11:49:34.188Z,93869.14
2022-09-07T11:50:41.980Z,93866.83
2022-09-07T11:51:44.825Z,93856.75
2022-09-07T11:52:53.487Z,93865.71
2022-09-07T11:54:01.641Z,93867.73
2022-09-07T11:55:08.305Z,93868.77
2022-09-07T11:56:18.665Z,93868.08
2022-09-07T11:57:21.592Z,93866.58
2022-09-07T11:58:43.259Z,93867.71
2022-09-07T11:59:49.594Z,93865.38
2022-09-07T12:00:52.501Z,93872.42
2022-09-07T12:01:58.509Z,93869.26
2022-09-07T12:03:02.374Z,93869.16
2022-09-07T12:04:18.998Z,93866.92
2022-09-07T12:05:42.158Z,93866.98
2022-09-07T12:07:10.173Z,93865.48
2022-09-07T12:08:21.902Z,93867.13
2022-09-07T12:09:24.940Z,93865.69
2022-09-07T12:10:42.156Z,93866.38
2022-09-07T12:12:00.138Z,93862.56
2022-09-07T12:13:03.013Z,93863.86
2022-09-07T12:14:41.516Z,93864.73
2022-09-07T12:15:53.215Z,93867.21
2022-09-07T12:17:04.678Z,93866.61
2022-09-07T12:18:17.425Z,93864.96
2022-09-07T12:19:21.690Z,93866.24
2022-09-07T12:20:28.101Z,93869.21
2022-09-07T12:21:30.944Z,93866.52
2022-09-07T12:22:34.430Z,93868.61
2022-09-07T12:23:37.313Z,93870.64
2022-09-07T12:24:49.840Z,93868.11
2022-09-07T12:26:14.343Z,93867.50
2022-09-07T12:27:20.213Z,93867.69
2022-09-07T12:28:23.236Z,93870.34
2022-09-07T12:29:27.401Z,93869.49
2022-09-07T12:30:30.860Z,93870.75
2022-09-07T12:31:57.160Z,93867.05
2022-09-07T12:33:06.386Z,93866.71
2022-09-07T12:34:35.649Z,93861.31
2022-09-07T12:35:41.510Z,93863.69
2022-09-07T12:36:49.994Z,93859.84
2022-09-07T12:38:06.155Z,93857.27
2022-09-07T12:39:25.287Z,93861.48
2022-09-07T12:40:32.237Z,93859.22
2022-09-07T12:43:20.259Z,93859.29
2022-09-07T12:44:27.284Z,93858.54
2022-09-07T12:45:32.309Z,93859.91
2022-09-07T12:46:35.549Z,93857.42
2022-09-07T12:47:41.476Z,93856.91
2022-09-07T12:49:00.411Z,93861.27
2022-09-07T12:50:06.728Z,93856.46
2022-09-07T12:53:10.255Z,93862.56
2022-09-07T12:54:36.551Z,93864.88
2022-09-07T12:57:30.117Z,93863.84
2022-09-07T12:58:42.170Z,93861.95
2022-09-07T12:59:51.304Z,93862.98
2022-09-07T13:01:00.554Z,93859.53
2022-09-07T13:02:03.545Z,93859.34
2022-09-07T13:04:53.298Z,93860.77
2022-09-07T13:06:04.543Z,93859.58
2022-09-07T13:07:18.486Z,93857.98
2022-09-07T13:08:39.447Z,93850.30
2022-09-07T13:09:45.365Z,93847.45
2022-09-07T13:10:48.365Z,93849.92
2022-09-07T13:11:51.504Z,93843.81
2022-09-07T13:12:59.375Z,93841.86
2022-09-07T13:14:09.370Z,93833.52
2022-09-07T13:15:31.131Z,93834.79
2022-09-07T13:17:59.832Z,93828.95
2022-09-07T13:19:03.837Z,93829.28
2022-09-07T13:20:18.614Z,93825.89
2022-09-07T13:21:35.632Z,93824.79
2022-09-07T13:22:38.728Z,93822.84
2022-09-07T13:23:45.772Z,93818.52
2022-09-07T13:24:52.770Z,93818.89
2022-09-07T13:26:00.537Z,93818.36
2022-09-07T13:27:22.677Z,93819.40
2022-09-07T13:28:29.219Z,93819.16
2022-09-07T13:29:41.237Z,93824.53
2022-09-07T13:31:11.332Z,93817.88
2022-09-07T13:33:08.026Z,93816.81
2022-09-07T13:33:51.147Z,93813.77
2022-09-07T13:35:04.776Z,93813.80
2022-09-07T13:36:16.473Z,93813.20
2022-09-07T13:37:21.030Z,93813.40
2022-09-07T13:38:24.047Z,93804.21
2022-09-07T13:39:28.663Z,93806.13
2022-09-07T13:40:38.013Z,93800.60
2022-09-07T13:41:48.292Z,93797.77
2022-09-07T13:42:52.533Z,93803.04
2022-09-07T13:44:00.108Z,93802.17
2022-09-07T13:45:05.955Z,93801.04
2022-09-07T13:46:17.114Z,93799.42
2022-09-07T13:47:29.169Z,93801.39
2022-09-07T13:48:42.187Z,93800.41
2022-09-07T13:50:08.166Z,93802.66
2022-09-07T13:51:19.149Z,93804.48
2022-09-07T13:52:27.625Z,93795.20
2022-09-07T13:53:36.274Z,93809.33
2022-09-07T13:54:39.592Z,93807.02
2022-09-07T13:56:05.629Z,93810.09
2022-09-07T13:57:20.598Z,93808.56
2022-09-07T13:58:51.709Z,93808.73
2022-09-07T13:59:55.581Z,93812.71
2022-09-07T14:01:05.144Z,93811.45
2022-09-07T14:02:20.609Z,93810.55
2022-09-07T14:03:25.609Z,93814.08
2022-09-07T14:04:37.292Z,93811.79
2022-09-07T14:05:40.124Z,93808.67